Time;durP1;ratioP1;P1;durP2;ratioP2;P2;SDS_P1;SDS_P2;PMS_P1;PMS_P2;Temp;Humidity;BMP_temperature;BMP_pressure;BME280_temperature;BME280_humidity;BME280_pressure;Samples;Min_cycle;Max_cycle;Signal;HPM_P1;HPM_P2
2023/04/21 00:00:57;;;;;;;8.75;6.10;;;;;;;12.05;49.50;94572.84;5044016;28;20586;-73
2023/04/21 00:03:23;;;;;;;7.50;5.97;;;;;;;12.09;49.27;94572.69;5043747;28;20033;-72
2023/04/21 00:05:49;;;;;;;7.50;6.20;;;;;;;11.90;49.60;94571.88;5045616;28;20032;-73
2023/04/21 00:08:16;;;;;;;8.40;6.22;;;;;;;11.84;49.71;94571.72;5044018;28;20496;-73
2023/04/21 00:10:42;;;;;;;9.23;6.35;;;;;;;11.90;49.35;94567.13;5043757;28;20029;-73
2023/04/21 00:13:07;;;;;;;7.78;5.75;;;;;;;11.65;50.07;94568.09;5044838;28;20483;-74
2023/04/21 00:15:33;;;;;;;7.22;5.90;;;;;;;11.72;49.61;94561.53;5044303;28;20104;-73
2023/04/21 00:17:58;;;;;;;6.78;5.90;;;;;;;11.72;49.89;94566.28;5043878;28;20403;-73
2023/04/21 00:20:27;;;;;;;8.57;6.00;;;;;;;11.74;49.81;94564.59;5043668;28;20037;-73
2023/04/21 00:22:53;;;;;;;9.15;6.72;;;;;;;11.74;49.74;94563.84;5044392;28;20033;-73
2023/04/21 00:25:18;;;;;;;7.75;6.13;;;;;;;11.78;49.59;94556.22;5044784;28;20033;-73
2023/04/21 00:27:44;;;;;;;9.05;6.38;;;;;;;11.71;49.74;94554.50;5045104;28;20400;-72
2023/04/21 00:30:10;;;;;;;7.03;5.78;;;;;;;11.69;49.75;94565.19;5043282;28;20387;-72
2023/04/21 00:32:35;;;;;;;8.52;6.13;;;;;;;11.71;49.71;94554.50;5045079;28;20526;-72
2023/04/21 00:35:01;;;;;;;7.15;5.80;;;;;;;11.75;49.47;94568.88;5043089;28;20025;-73
2023/04/21 00:37:26;;;;;;;7.88;5.72;;;;;;;11.72;49.67;94555.28;5043690;28;20017;-73
2023/04/21 00:39:52;;;;;;;7.20;5.80;;;;;;;11.78;49.52;94564.47;5044819;28;20605;-73
2023/04/21 00:42:17;;;;;;;6.57;5.80;;;;;;;11.73;49.42;94563.06;5044305;28;20025;-73
2023/04/21 00:44:42;;;;;;;8.70;5.90;;;;;;;11.72;49.52;94567.06;5043755;28;20033;-72
2023/04/21 00:47:08;;;;;;;8.35;6.05;;;;;;;11.69;49.45;94562.44;5043928;28;20021;-73
2023/04/21 00:49:34;;;;;;;8.18;6.22;;;;;;;11.69;49.34;94568.69;5045041;28;20345;-72
2023/04/21 00:51:59;;;;;;;7.70;6.00;;;;;;;11.72;49.52;94564.28;5042951;28;20025;-73
2023/04/21 00:54:25;;;;;;;7.78;6.13;;;;;;;11.71;49.29;94562.75;5044921;28;20507;-73
2023/04/21 00:56:51;;;;;;;9.18;6.55;;;;;;;11.74;49.24;94555.56;5044594;28;20036;-73
2023/04/21 00:59:16;;;;;;;8.25;6.50;;;;;;;11.76;49.28;94550.41;5042751;28;20128;-73
2023/04/21 01:01:43;;;;;;;8.02;5.75;;;;;;;11.72;49.34;94547.78;5044766;28;20431;-72
2023/04/21 01:04:09;;;;;;;9.40;5.80;;;;;;;11.64;49.59;94549.25;5041943;28;20032;-72
2023/04/21 01:06:34;;;;;;;11.63;6.30;;;;;;;11.67;49.44;94549.13;5027360;28;20036;-73
2023/04/21 01:09:01;;;;;;;9.73;6.10;;;;;;;11.68;49.54;94547.91;5043254;28;20499;-73
2023/04/21 01:11:27;;;;;;;8.98;6.30;;;;;;;11.62;49.57;94551.72;5042827;28;20025;-72
2023/04/21 01:13:55;;;;;;;10.55;6.45;;;;;;;11.55;49.80;94546.47;5044103;28;20506;-73
2023/04/21 01:16:22;;;;;;;7.38;5.85;;;;;;;11.44;50.11;94553.16;5042909;28;20095;-72
2023/04/21 01:18:48;;;;;;;10.07;7.03;;;;;;;11.37;50.27;94553.44;5043404;28;20021;-73
2023/04/21 01:21:15;;;;;;;8.50;6.55;;;;;;;11.20;50.59;94549.38;5025524;28;20159;-73
2023/04/21 01:23:40;;;;;;;9.13;5.78;;;;;;;11.23;50.99;94550.44;5045118;28;20475;-72
2023/04/21 01:26:06;;;;;;;8.15;5.60;;;;;;;11.23;50.92;94542.19;5042627;28;20029;-72
2023/04/21 01:28:31;;;;;;;8.05;6.50;;;;;;;11.08;51.46;94544.72;5044445;28;20024;-72
2023/04/21 01:30:57;;;;;;;8.75;6.00;;;;;;;11.17;51.28;94544.75;5043994;28;20021;-72
2023/04/21 01:33:23;;;;;;;11.80;6.15;;;;;;;11.15;51.26;94553.47;5042800;28;20032;-72
2023/04/21 01:35:49;;;;;;;7.60;5.97;;;;;;;11.12;51.29;94542.59;5042963;28;20027;-72
2023/04/21 01:38:17;;;;;;;9.27;6.00;;;;;;;11.04;51.44;94536.59;5043772;28;20111;-73
2023/04/21 01:40:45;;;;;;;7.65;6.20;;;;;;;11.05;51.33;94548.34;5026927;28;20545;-73
2023/04/21 01:43:11;;;;;;;8.00;5.90;;;;;;;11.07;51.82;94545.94;5042420;28;20021;-72
2023/04/21 01:45:37;;;;;;;8.02;6.07;;;;;;;11.04;51.29;94539.34;5026185;28;20553;-72
2023/04/21 01:48:03;;;;;;;8.95;6.30;;;;;;;10.97;51.54;94541.59;5041944;28;20201;-72
2023/04/21 01:50:28;;;;;;;9.10;6.80;;;;;;;10.90;51.80;94535.13;5044265;28;20021;-72
2023/04/21 01:52:54;;;;;;;9.70;5.97;;;;;;;11.02;51.59;94538.25;5044223;28;20029;-72
2023/04/21 01:55:19;;;;;;;8.82;6.32;;;;;;;11.09;51.25;94540.75;5025830;28;20377;-72
2023/04/21 01:57:45;;;;;;;7.63;6.60;;;;;;;11.12;51.30;94537.84;5044295;28;20520;-72
2023/04/21 02:00:11;;;;;;;8.07;6.70;;;;;;;11.10;51.43;94547.78;5043247;28;20114;-73
2023/04/21 02:02:36;;;;;;;9.15;6.25;;;;;;;11.05;51.35;94542.84;5046078;28;20516;-73
2023/04/21 02:05:01;;;;;;;7.78;5.90;;;;;;;10.98;51.69;94549.38;5042132;28;20576;-73
2023/04/21 02:07:27;;;;;;;8.77;6.20;;;;;;;11.02;51.55;94550.03;5044236;28;20028;-73
2023/04/21 02:09:52;;;;;;;8.07;6.95;;;;;;;11.04;51.42;94536.59;5042295;28;20044;-74
2023/04/21 02:12:18;;;;;;;10.77;7.68;;;;;;;11.12;51.18;94548.09;5042236;28;20021;-73
2023/04/21 02:14:46;;;;;;;8.65;6.82;;;;;;;11.13;51.38;94550.41;5044696;28;20021;-73
2023/04/21 02:17:12;;;;;;;12.45;6.28;;;;;;;11.14;51.45;94542.91;5047051;28;20420;-73
2023/04/21 02:19:37;;;;;;;9.10;7.03;;;;;;;11.14;51.25;94542.91;5048010;28;20036;-73
2023/04/21 02:22:03;;;;;;;8.98;6.28;;;;;;;11.17;51.42;94542.00;5045483;28;20032;-73
2023/04/21 02:24:28;;;;;;;11.98;8.65;;;;;;;11.14;51.96;94542.91;5046159;28;20028;-73
2023/04/21 02:26:53;;;;;;;14.43;8.35;;;;;;;11.09;52.04;94549.00;5047619;28;20021;-73
2023/04/21 02:29:19;;;;;;;10.82;8.07;;;;;;;11.05;52.21;94545.59;5046309;28;20051;-73
2023/04/21 02:31:44;;;;;;;11.18;8.38;;;;;;;11.02;52.33;94541.78;5045629;28;20114;-73
2023/04/21 02:34:09;;;;;;;12.93;9.27;;;;;;;10.97;52.58;94539.59;5045993;28;20108;-73
2023/04/21 02:36:35;;;;;;;11.85;8.00;;;;;;;10.96;52.74;94542.81;5045751;28;20114;-73
2023/04/21 02:39:00;;;;;;;13.50;8.52;;;;;;;10.93;52.82;94543.69;5045308;28;20195;-73
2023/04/21 02:41:26;;;;;;;12.55;8.50;;;;;;;10.92;52.74;94548.44;5047028;28;20047;-73
2023/04/21 02:43:51;;;;;;;11.80;8.55;;;;;;;10.90;52.99;94548.88;5046709;28;20457;-73
2023/04/21 02:46:16;;;;;;;13.40;8.73;;;;;;;10.89;53.00;94541.81;5046694;28;20021;-72
2023/04/21 02:48:42;;;;;;;11.90;8.80;;;;;;;10.86;52.95;94547.47;5045145;28;20483;-73
2023/04/21 02:51:12;;;;;;;13.20;8.70;;;;;;;10.86;53.16;94548.25;5045797;28;20036;-74
2023/04/21 02:53:38;;;;;;;12.57;8.45;;;;;;;10.84;53.28;94547.94;5045297;28;20483;-73
2023/04/21 02:56:03;;;;;;;12.20;8.23;;;;;;;10.87;53.32;94551.75;5046506;28;20021;-73
2023/04/21 02:58:29;;;;;;;12.07;8.75;;;;;;;10.87;53.24;94552.53;5045728;28;20068;-73
2023/04/21 03:00:55;;;;;;;11.23;7.65;;;;;;;10.88;53.35;94554.03;5044760;28;20040;-73
2023/04/21 03:03:21;;;;;;;11.70;8.65;;;;;;;10.90;53.25;94550.88;5046829;28;20091;-72
2023/04/21 03:05:46;;;;;;;11.68;8.57;;;;;;;10.84;53.39;94550.69;5046493;28;20078;-72
2023/04/21 03:08:12;;;;;;;12.05;8.80;;;;;;;10.92;53.57;94550.41;5045629;28;20120;-72
2023/04/21 03:10:37;;;;;;;13.77;8.43;;;;;;;10.90;53.41;94554.38;5044627;28;20082;-72
2023/04/21 03:13:03;;;;;;;12.80;8.70;;;;;;;10.96;53.38;94553.81;5046720;28;20116;-74
2023/04/21 03:15:28;;;;;;;10.73;8.00;;;;;;;10.97;53.39;94547.84;5046448;28;20465;-71
2023/04/21 03:17:54;;;;;;;10.90;8.18;;;;;;;11.04;53.13;94552.31;5046271;28;20476;-72
2023/04/21 03:20:20;;;;;;;13.15;8.35;;;;;;;11.04;53.29;94553.09;5046704;28;20037;-72
2023/04/21 03:22:45;;;;;;;10.07;8.32;;;;;;;11.08;53.22;94558.47;5044349;28;20040;-72
2023/04/21 03:25:11;;;;;;;13.43;8.43;;;;;;;11.11;52.96;94557.56;5044878;28;20025;-73
2023/04/21 03:27:36;;;;;;;16.13;8.98;;;;;;;11.08;53.05;94550.97;5045950;28;20033;-73
2023/04/21 03:30:02;;;;;;;11.38;8.25;;;;;;;11.07;52.92;94548.69;5045075;28;20056;-72
2023/04/21 03:32:27;;;;;;;10.18;8.13;;;;;;;11.13;52.56;94558.66;5044494;28;20021;-73
2023/04/21 03:34:53;;;;;;;11.57;8.10;;;;;;;11.15;52.44;94558.97;5046169;28;20376;-73
2023/04/21 03:37:18;;;;;;;12.00;8.25;;;;;;;11.18;52.46;94560.03;5046510;28;20021;-73
2023/04/21 03:39:44;;;;;;;14.52;7.68;;;;;;;11.21;52.49;94556.41;5043845;28;20111;-72
2023/04/21 03:42:09;;;;;;;12.88;8.95;;;;;;;11.23;52.37;94556.72;5045962;28;20064;-72
2023/04/21 03:44:35;;;;;;;11.07;8.02;;;;;;;11.20;52.31;94563.13;5045463;28;20029;-73
2023/04/21 03:47:02;;;;;;;10.95;8.25;;;;;;;11.26;52.44;94564.06;5045793;28;20095;-73
2023/04/21 03:49:27;;;;;;;13.93;8.75;;;;;;;11.27;52.40;94573.84;5045620;28;20029;-72
2023/04/21 03:51:53;;;;;;;12.65;8.73;;;;;;;11.26;52.23;94566.06;5046015;28;20408;-73
2023/04/21 03:54:18;;;;;;;13.52;8.35;;;;;;;11.22;52.52;94568.94;5045975;28;20025;-73
2023/04/21 03:56:43;;;;;;;13.55;9.30;;;;;;;11.33;52.25;94574.03;5043750;28;20025;-73
2023/04/21 03:59:09;;;;;;;12.30;9.18;;;;;;;11.28;52.41;94569.88;5045969;28;20049;-73
2023/04/21 04:01:35;;;;;;;12.52;8.25;;;;;;;11.37;52.06;94564.44;5043693;28;20024;-72
2023/04/21 04:04:00;;;;;;;14.52;9.15;;;;;;;11.44;51.81;94574.41;5027672;28;20436;-72
2023/04/21 04:06:27;;;;;;;12.32;8.85;;;;;;;11.46;51.69;94576.72;5043744;28;20025;-72
2023/04/21 04:08:52;;;;;;;11.10;8.20;;;;;;;11.47;51.82;94576.28;5045418;28;20056;-74
2023/04/21 04:11:18;;;;;;;13.73;8.55;;;;;;;11.47;51.74;94586.50;5043707;28;20052;-74
2023/04/21 04:13:43;;;;;;;10.93;8.20;;;;;;;11.51;51.62;94584.38;5045046;28;20032;-74
2023/04/21 04:16:08;;;;;;;10.65;8.32;;;;;;;11.54;51.12;94589.75;5045519;28;20100;-74
2023/04/21 04:18:34;;;;;;;11.95;8.00;;;;;;;11.55;51.16;94596.03;5043243;28;20025;-73
2023/04/21 04:21:06;;;;;;;11.45;7.88;;;;;;;11.55;51.17;94591.28;5045322;28;20175;-72
2023/04/21 04:23:32;;;;;;;13.25;7.78;;;;;;;11.61;51.04;94594.22;5026886;28;20534;-73
2023/04/21 04:25:58;;;;;;;11.63;8.25;;;;;;;11.69;50.83;94598.22;5043679;28;20452;-73
2023/04/21 04:28:23;;;;;;;10.40;7.65;;;;;;;11.68;50.84;94593.94;5044747;28;20029;-73
2023/04/21 04:30:49;;;;;;;12.43;8.35;;;;;;;11.74;50.86;94597.66;5043447;28;20093;-72
2023/04/21 04:33:14;;;;;;;15.38;7.65;;;;;;;11.77;50.91;94599.50;5043835;28;20021;-72
2023/04/21 04:35:40;;;;;;;10.80;8.65;;;;;;;11.74;50.83;94602.38;5042818;28;20589;-74
2023/04/21 04:38:06;;;;;;;10.25;8.13;;;;;;;11.78;50.81;94601.03;5043420;28;20054;-73
2023/04/21 04:40:32;;;;;;;10.05;7.43;;;;;;;11.71;50.82;94609.56;5044391;28;20033;-74
2023/04/21 04:42:58;;;;;;;9.85;7.93;;;;;;;11.69;51.04;94612.75;5044779;28;20036;-73
2023/04/21 04:45:25;;;;;;;9.90;7.85;;;;;;;11.71;51.15;94612.34;5044416;28;20407;-73
2023/04/21 04:47:51;;;;;;;12.48;8.20;;;;;;;11.85;50.85;94609.03;5043106;28;20091;-73
2023/04/21 04:50:16;;;;;;;13.02;8.38;;;;;;;11.84;50.94;94615.00;5043252;28;20128;-74
2023/04/21 04:52:45;;;;;;;10.32;7.75;;;;;;;11.89;50.89;94606.16;5044359;28;20139;-73
2023/04/21 04:55:11;;;;;;;11.70;8.18;;;;;;;11.99;50.49;94615.22;5044958;28;20028;-73
2023/04/21 04:57:36;;;;;;;11.00;8.77;;;;;;;12.10;50.47;94615.56;5042959;28;20552;-73
2023/04/21 05:00:05;;;;;;;12.07;8.65;;;;;;;12.11;50.53;94614.34;5043085;28;20056;-74
2023/04/21 05:02:31;;;;;;;11.35;8.20;;;;;;;12.10;50.51;94618.31;5044351;28;20107;-73
2023/04/21 05:04:56;;;;;;;13.40;8.88;;;;;;;12.15;50.47;94617.72;5026341;28;20025;-72
2023/04/21 05:07:22;;;;;;;13.75;9.05;;;;;;;12.20;50.18;94619.88;5042911;28;20028;-74
2023/04/21 05:09:47;;;;;;;14.30;9.48;;;;;;;12.23;50.48;94621.75;5042862;28;20039;-72
2023/04/21 05:12:13;;;;;;;12.35;9.32;;;;;;;12.35;50.19;94620.09;5042745;28;20025;-73
2023/04/21 05:14:38;;;;;;;15.68;9.00;;;;;;;12.27;50.49;94622.34;5043972;28;20463;-72
2023/04/21 05:17:03;;;;;;;12.13;9.25;;;;;;;12.27;50.63;94621.56;5043028;28;20506;-72
2023/04/21 05:19:29;;;;;;;11.20;8.52;;;;;;;12.34;50.45;94619.31;5044078;28;20148;-75
2023/04/21 05:21:59;;;;;;;14.07;9.70;;;;;;;12.33;50.80;94620.53;5044141;28;20029;-73
2023/04/21 05:24:25;;;;;;;10.85;8.27;;;;;;;12.44;50.42;94625.59;5044112;28;20032;-73
2023/04/21 05:26:50;;;;;;;14.48;9.05;;;;;;;12.43;50.53;94626.81;5044380;28;20017;-73
2023/04/21 05:29:15;;;;;;;12.52;8.88;;;;;;;12.46;50.49;94614.91;5042740;28;20170;-72
2023/04/21 05:31:41;;;;;;;15.02;9.32;;;;;;;12.48;50.74;94623.47;5042614;28;20090;-72
2023/04/21 05:34:06;;;;;;;14.07;8.80;;;;;;;12.61;50.57;94626.09;5044358;28;20025;-73
2023/04/21 05:36:32;;;;;;;12.63;8.88;;;;;;;12.69;50.40;94616.31;5042621;28;20146;-73
2023/04/21 05:38:57;;;;;;;11.88;8.90;;;;;;;12.70;50.23;94617.84;5026839;28;20048;-74
2023/04/21 05:41:23;;;;;;;11.77;8.75;;;;;;;12.74;50.35;94615.72;5043759;28;20060;-73
2023/04/21 05:43:48;;;;;;;14.38;8.25;;;;;;;12.78;50.07;94619.06;5044325;28;20497;-73
2023/04/21 05:46:14;;;;;;;10.52;8.52;;;;;;;12.86;49.73;94622.31;5042172;28;20029;-73
2023/04/21 05:48:40;;;;;;;13.38;7.70;;;;;;;12.96;49.43;94618.28;5043243;28;20090;-73
2023/04/21 05:51:09;;;;;;;11.80;8.77;;;;;;;13.00;49.52;94624.44;5047782;28;20020;-72
2023/04/21 05:53:35;;;;;;;12.80;9.50;;;;;;;13.04;49.56;94616.78;5047510;28;20031;-72
2023/04/21 05:56:01;;;;;;;11.57;7.47;;;;;;;13.07;49.33;94609.56;5046932;28;20037;-73
2023/04/21 05:58:26;;;;;;;12.60;8.55;;;;;;;13.05;49.51;94610.03;5045957;28;20147;-74
2023/04/21 06:00:51;;;;;;;10.63;8.45;;;;;;;13.09;49.56;94616.16;5047993;28;21015;-74
2023/04/21 06:03:17;;;;;;;9.18;7.22;;;;;;;13.10;49.24;94614.94;5047263;28;20060;-73
2023/04/21 06:05:42;;;;;;;11.25;7.20;;;;;;;13.16;49.51;94606.81;5047984;28;20116;-72
2023/04/21 06:08:08;;;;;;;9.93;8.20;;;;;;;13.10;49.93;94603.13;5029504;28;20075;-72
2023/04/21 06:10:33;;;;;;;11.00;8.13;;;;;;;13.11;49.78;94604.66;5047443;28;20107;-72
2023/04/21 06:12:59;;;;;;;12.75;7.55;;;;;;;13.05;49.92;94607.28;5047251;28;20419;-74
2023/04/21 06:15:24;;;;;;;10.95;8.32;;;;;;;13.01;50.10;94601.91;5045679;28;20079;-73
2023/04/21 06:17:56;;;;;;;8.30;7.07;;;;;;;12.98;50.12;94596.56;5047746;28;20487;-72
2023/04/21 06:20:21;;;;;;;9.90;7.47;;;;;;;12.89;50.65;94605.59;5045270;28;20040;-72
2023/04/21 06:22:47;;;;;;;9.77;7.60;;;;;;;13.17;50.22;94595.28;5045470;28;20557;-74
2023/04/21 06:25:12;;;;;;;11.07;7.45;;;;;;;13.10;50.10;94601.13;5046855;28;20404;-73
2023/04/21 06:27:37;;;;;;;9.40;7.35;;;;;;;13.10;50.03;94611.41;5047374;28;20566;-73
2023/04/21 06:30:03;;;;;;;8.27;7.25;;;;;;;13.09;50.32;94607.88;5047438;28;20079;-74
2023/04/21 06:32:29;;;;;;;12.05;8.32;;;;;;;13.31;50.06;94609.75;5044950;28;20061;-72
2023/04/21 06:34:54;;;;;;;9.93;7.63;;;;;;;13.45;49.73;94611.84;5048952;28;20036;-72
2023/04/21 06:37:20;;;;;;;9.60;7.90;;;;;;;13.57;49.72;94605.38;5044989;28;20105;-74
2023/04/21 06:39:45;;;;;;;12.73;8.13;;;;;;;13.44;50.15;94604.81;5045893;28;20048;-72
2023/04/21 06:42:10;;;;;;;11.13;8.15;;;;;;;13.73;49.31;94607.03;5046624;28;20036;-74
2023/04/21 06:44:37;;;;;;;10.98;8.50;;;;;;;13.83;49.32;94603.00;5045923;28;20032;-72
2023/04/21 06:47:02;;;;;;;11.60;7.80;;;;;;;13.95;49.02;94607.56;5045894;28;20036;-73
2023/04/21 06:49:28;;;;;;;11.40;7.68;;;;;;;13.90;49.01;94599.91;5045938;28;20025;-74
2023/04/21 06:51:53;;;;;;;11.57;8.10;;;;;;;14.08;48.98;94588.78;5047675;28;20017;-72
2023/04/21 06:54:19;;;;;;;10.57;7.35;;;;;;;14.01;49.20;94593.88;5046169;28;20033;-73
2023/04/21 06:56:44;;;;;;;10.35;8.52;;;;;;;13.87;49.41;94600.06;5047366;28;20025;-73
2023/04/21 06:59:10;;;;;;;9.20;7.60;;;;;;;13.84;49.32;94596.25;5044840;28;20069;-73
2023/04/21 07:01:35;;;;;;;11.18;7.57;;;;;;;13.92;49.11;94599.44;5046216;28;20025;-72
2023/04/21 07:04:01;;;;;;;11.40;7.30;;;;;;;13.85;49.28;94595.00;5028427;28;20554;-73
2023/04/21 07:06:26;;;;;;;11.10;6.82;;;;;;;14.12;48.26;94591.38;5046684;28;20115;-73
2023/04/21 07:08:52;;;;;;;9.68;6.47;;;;;;;14.13;48.32;94592.91;5046758;28;20032;-73
2023/04/21 07:11:18;;;;;;;11.27;6.60;;;;;;;14.24;48.16;94598.69;5027805;28;20053;-73
2023/04/21 07:13:43;;;;;;;9.93;7.50;;;;;;;14.18;48.63;94589.50;5045577;28;20614;-72
2023/04/21 07:16:09;;;;;;;9.40;6.53;;;;;;;14.26;48.23;94590.66;5046064;28;20104;-72
2023/04/21 07:18:34;;;;;;;11.43;7.00;;;;;;;14.35;48.21;94592.63;5045232;28;20028;-72
2023/04/21 07:20:59;;;;;;;7.65;6.13;;;;;;;14.34;48.34;94593.88;5045145;28;20514;-73
2023/04/21 07:23:25;;;;;;;11.45;6.38;;;;;;;14.30;48.22;94588.50;5046380;28;20468;-73
2023/04/21 07:25:50;;;;;;;9.95;6.82;;;;;;;14.16;48.58;94591.94;5046375;28;20112;-73
2023/04/21 07:28:16;;;;;;;10.10;6.53;;;;;;;14.39;47.64;94592.44;5047012;28;20355;-72
2023/04/21 07:30:41;;;;;;;8.90;5.70;;;;;;;14.54;47.86;94588.53;5047914;28;20028;-74
2023/04/21 07:33:07;;;;;;;8.70;6.35;;;;;;;14.76;47.64;94591.00;5044425;28;20415;-74
2023/04/21 07:35:33;;;;;;;7.80;5.85;;;;;;;14.82;46.25;94589.13;5046460;28;20510;-72
2023/04/21 07:37:58;;;;;;;7.50;5.80;;;;;;;15.01;46.00;94589.72;5045780;28;20025;-74
2023/04/21 07:40:24;;;;;;;7.78;6.20;;;;;;;15.13;46.30;94585.16;5046030;28;20029;-73
2023/04/21 07:42:49;;;;;;;8.60;6.05;;;;;;;15.19;46.19;94591.56;5045759;28;20021;-72
2023/04/21 07:45:15;;;;;;;7.53;5.68;;;;;;;15.30;45.74;94600.09;5044820;28;20457;-74
2023/04/21 07:47:40;;;;;;;6.80;5.63;;;;;;;15.46;45.41;94582.25;5045515;28;20033;-73
2023/04/21 07:50:06;;;;;;;7.28;5.43;;;;;;;15.66;45.34;94593.47;5044588;28;20021;-74
2023/04/21 07:52:32;;;;;;;8.00;6.22;;;;;;;15.92;44.85;94598.41;5046914;28;20096;-72
2023/04/21 07:54:57;;;;;;;8.10;5.57;;;;;;;15.87;44.64;94601.84;5045437;28;20032;-74
2023/04/21 07:57:23;;;;;;;9.57;6.15;;;;;;;15.80;44.75;94596.69;5045774;28;20020;-73
2023/04/21 07:59:49;;;;;;;8.85;5.93;;;;;;;15.83;44.79;94602.06;5045296;28;20516;-73
2023/04/21 08:02:14;;;;;;;10.05;5.90;;;;;;;15.96;44.73;94607.28;5044307;28;20036;-71
2023/04/21 08:04:40;;;;;;;10.57;7.40;;;;;;;15.90;44.68;94609.22;5045173;28;20770;-72
2023/04/21 08:07:05;;;;;;;10.05;5.88;;;;;;;16.11;43.54;94601.72;5044481;28;20028;-73
2023/04/21 08:09:31;;;;;;;10.85;6.97;;;;;;;16.12;43.25;94597.72;5045366;28;20025;-74
2023/04/21 08:11:56;;;;;;;8.32;5.47;;;;;;;16.24;42.89;94601.41;5044690;28;20551;-74
2023/04/21 08:14:22;;;;;;;9.55;5.95;;;;;;;16.17;42.84;94602.56;5044473;28;20241;-73
2023/04/21 08:16:48;;;;;;;10.32;6.40;;;;;;;16.17;43.02;94589.47;5044851;28;20082;-72
2023/04/21 08:19:13;;;;;;;9.35;6.13;;;;;;;16.24;43.20;94598.66;5045597;28;20063;-73
2023/04/21 08:21:39;;;;;;;10.73;6.60;;;;;;;16.22;43.14;94598.34;5044626;28;20071;-72
2023/04/21 08:24:04;;;;;;;10.13;5.38;;;;;;;16.35;42.74;94596.78;5045547;28;20025;-72
2023/04/21 08:26:32;;;;;;;8.77;5.88;;;;;;;16.37;42.78;94596.31;5045039;28;20179;-74
2023/04/21 08:28:58;;;;;;;7.07;5.45;;;;;;;16.58;42.58;94583.22;5045213;28;20090;-72
2023/04/21 08:31:24;;;;;;;9.27;6.85;;;;;;;16.72;42.33;94594.28;5027398;28;20020;-72
2023/04/21 08:33:50;;;;;;;6.30;4.75;;;;;;;16.72;42.18;94588.72;5044573;28;20450;-74
2023/04/21 08:36:15;;;;;;;8.20;5.55;;;;;;;16.61;41.53;94599.66;5043981;28;20052;-72
2023/04/21 08:38:44;;;;;;;9.73;4.85;;;;;;;16.45;41.40;94597.41;5043197;28;20021;-73
2023/04/21 08:41:09;;;;;;;7.47;5.72;;;;;;;16.76;41.30;94587.78;5044984;28;20032;-73
2023/04/21 08:43:35;;;;;;;9.48;5.25;;;;;;;17.00;40.89;94582.75;5026082;28;20032;-73
2023/04/21 08:46:08;;;;;;;8.80;5.55;;;;;;;17.20;41.33;94571.63;5044932;28;20032;-73
2023/04/21 08:48:37;;;;;;;9.18;4.97;;;;;;;17.24;40.10;94572.16;5026554;28;20086;-72
2023/04/21 08:51:03;;;;;;;9.75;5.78;;;;;;;17.14;41.07;94575.59;5044466;28;20032;-72
2023/04/21 08:53:28;;;;;;;6.95;5.05;;;;;;;17.49;39.91;94581.00;5043576;28;20117;-72
2023/04/21 08:55:55;;;;;;;8.18;5.28;;;;;;;17.52;40.01;94566.13;5044088;28;20108;-74
2023/04/21 08:58:21;;;;;;;7.78;5.28;;;;;;;17.49;40.47;94572.66;5043385;28;20083;-73
2023/04/21 09:00:50;;;;;;;8.48;5.10;;;;;;;17.80;39.64;94566.41;5042689;28;20037;-72
2023/04/21 09:03:23;;;;;;;10.95;5.03;;;;;;;18.08;39.57;94566.63;5043337;28;20056;-72
2023/04/21 09:06:04;;;;;;;9.90;6.03;;;;;;;18.11;39.19;94559.28;5044399;28;20032;-73
2023/04/21 09:08:29;;;;;;;12.13;5.45;;;;;;;18.19;38.12;94555.56;5043974;28;20082;-72
2023/04/21 09:10:55;;;;;;;6.38;4.78;;;;;;;18.42;38.18;94561.28;5044044;28;20025;-72
2023/04/21 09:13:28;;;;;;;9.95;4.95;;;;;;;18.63;38.06;94564.66;5042904;28;20025;-73
2023/04/21 09:15:54;;;;;;;10.05;4.90;;;;;;;18.98;36.71;94551.19;5042778;28;20032;-73
2023/04/21 09:18:21;;;;;;;7.78;4.85;;;;;;;19.06;34.61;94548.66;5045583;28;20025;-73
2023/04/21 09:20:48;;;;;;;5.72;4.13;;;;;;;19.31;34.67;94544.94;5026163;28;20025;-73
2023/04/21 09:23:13;;;;;;;7.28;5.15;;;;;;;19.45;35.65;94536.84;5042788;28;20033;-73
2023/04/21 09:25:41;;;;;;;7.55;5.50;;;;;;;19.60;34.98;94543.72;5042087;28;20082;-72
2023/04/21 09:28:08;;;;;;;8.88;4.95;;;;;;;19.86;34.63;94537.16;5043226;28;20017;-72
2023/04/21 09:30:40;;;;;;;8.93;4.72;;;;;;;19.78;34.09;94536.13;5042491;28;20036;-72
2023/04/21 09:33:06;;;;;;;9.10;5.00;;;;;;;20.12;33.92;94539.66;5043008;28;20491;-73
2023/04/21 09:35:34;;;;;;;6.70;3.92;;;;;;;20.14;33.51;94525.97;5042541;28;20053;-72
2023/04/21 09:38:03;;;;;;;7.30;4.78;;;;;;;19.88;33.81;94540.19;5042786;28;20028;-73
2023/04/21 09:40:29;;;;;;;9.75;5.65;;;;;;;19.92;34.05;94528.78;5042948;28;20431;-72
2023/04/21 09:42:55;;;;;;;11.55;5.75;;;;;;;19.84;34.12;94525.72;5042069;28;20067;-72
2023/04/21 09:45:23;;;;;;;7.50;5.30;;;;;;;19.71;34.38;94517.13;5043199;28;20045;-72
2023/04/21 09:47:54;;;;;;;8.52;4.93;;;;;;;19.52;33.81;94522.41;5041793;28;20480;-73
2023/04/21 09:50:21;;;;;;;8.90;6.10;;;;;;;19.44;34.26;94527.75;5043192;28;20094;-71
2023/04/21 09:52:52;;;;;;;9.13;5.68;;;;;;;19.18;34.85;94522.38;5042224;28;20061;-72
2023/04/21 09:55:18;;;;;;;8.65;6.13;;;;;;;19.09;34.75;94519.78;5026369;28;20491;-72
2023/04/21 09:57:47;;;;;;;6.97;5.85;;;;;;;19.07;35.24;94525.13;5042709;28;20083;-72
2023/04/21 10:00:13;;;;;;;11.45;5.97;;;;;;;19.26;35.59;94528.19;5043598;28;20329;-73
2023/04/21 10:02:44;;;;;;;13.00;5.75;;;;;;;19.20;35.32;94517.03;5042953;28;20040;-72
2023/04/21 10:05:11;;;;;;;8.63;5.00;;;;;;;19.00;35.46;94515.22;5042333;28;20021;-73
2023/04/21 10:07:37;;;;;;;7.00;5.30;;;;;;;18.64;35.99;94528.00;5044065;28;20036;-73
2023/04/21 10:10:02;;;;;;;6.32;5.00;;;;;;;18.58;35.86;94513.28;5043138;28;20021;-73
2023/04/21 10:12:28;;;;;;;8.20;6.30;;;;;;;18.44;36.41;94520.53;5043456;28;20082;-73
2023/04/21 10:14:54;;;;;;;7.68;5.75;;;;;;;18.51;36.81;94508.94;5042719;28;20029;-73
2023/04/21 10:17:25;;;;;;;10.07;5.60;;;;;;;18.47;36.91;94511.22;5025709;28;20552;-73
2023/04/21 10:19:52;;;;;;;7.28;5.00;;;;;;;18.54;37.00;94519.09;5026044;28;20025;-73
2023/04/21 10:22:33;;;;;;;8.65;5.07;;;;;;;18.45;37.04;94519.28;5043548;28;20029;-72
2023/04/21 10:25:03;;;;;;;6.72;4.97;;;;;;;18.43;36.48;94513.47;5042469;28;20025;-72
2023/04/21 10:27:44;;;;;;;6.75;4.50;;;;;;;18.44;35.20;94514.22;5042033;28;20025;-72
2023/04/21 10:30:25;;;;;;;7.00;4.80;;;;;;;18.40;36.09;94511.66;5025940;28;20029;-72
2023/04/21 10:33:04;;;;;;;7.40;4.88;;;;;;;18.46;36.35;94514.47;5044139;28;20100;-72
2023/04/21 10:36:02;;;;;;;6.90;4.68;;;;;;;18.30;36.63;94507.59;5042092;28;20376;-72
2023/04/21 10:38:39;;;;;;;7.50;5.03;;;;;;;18.44;36.01;94503.09;5046313;28;20147;-72
2023/04/21 10:41:31;;;;;;;8.45;4.47;;;;;;;18.66;35.16;94502.44;5045788;28;20372;-73
2023/04/21 10:44:20;;;;;;;9.10;4.13;;;;;;;19.21;34.69;94501.06;5045177;28;20121;-74
2023/04/21 10:46:47;;;;;;;8.77;4.05;;;;;;;19.64;33.82;94498.88;5046858;28;20032;-72
2023/04/21 10:49:24;;;;;;;7.28;4.78;;;;;;;19.51;33.99;94493.03;5045037;28;20494;-72
2023/04/21 10:51:58;;;;;;;6.32;4.45;;;;;;;19.52;33.73;94502.91;5045377;28;20466;-72
2023/04/21 10:54:25;;;;;;;6.30;3.97;;;;;;;19.76;33.41;94505.22;5047347;28;20052;-74
2023/04/21 10:56:52;;;;;;;9.77;4.97;;;;;;;19.69;33.89;94503.69;5046466;28;20028;-72
2023/04/21 10:59:18;;;;;;;5.90;4.25;;;;;;;19.75;32.84;94503.69;5045293;28;20073;-72
2023/04/21 11:01:44;;;;;;;5.03;4.07;;;;;;;19.83;32.81;94507.47;5045232;28;20039;-72
2023/04/21 11:04:17;;;;;;;4.82;3.75;;;;;;;20.50;31.62;94512.22;5045375;28;20526;-72
2023/04/21 11:06:43;;;;;;;4.50;3.75;;;;;;;20.69;31.11;94507.56;5045745;28;20033;-72
2023/04/21 11:09:08;;;;;;;5.47;3.78;;;;;;;20.71;31.30;94504.28;5048070;28;20029;-72
2023/04/21 11:11:35;;;;;;;5.72;4.00;;;;;;;20.99;31.55;94504.13;5046784;28;20040;-71
2023/04/21 11:14:01;;;;;;;5.15;3.60;;;;;;;21.40;30.04;94504.97;5028046;28;20083;-76
2023/04/21 11:16:27;;;;;;;5.07;3.25;;;;;;;21.84;28.83;94500.28;5045462;28;20135;-79
2023/04/21 11:18:55;;;;;;;4.25;3.65;;;;;;;22.47;27.94;94493.59;5044938;28;20556;-80
2023/04/21 11:21:21;;;;;;;4.28;3.05;;;;;;;22.70;27.19;94498.94;5045129;28;20510;-80
2023/04/21 11:23:48;;;;;;;6.15;3.67;;;;;;;23.02;27.43;94485.09;5044965;28;20036;-81
2023/04/21 11:26:14;;;;;;;6.30;3.78;;;;;;;23.74;27.48;94490.94;5046369;28;20025;-79